sensor_id;sensor_type;location;lat;lon;timestamp;P1;durP1;ratioP1;P2;durP2;ratioP2
3207;SDS011;1616;52.394;9.756;2023-05-15T00:01:47;9.40;;;8.87;;
3207;SDS011;1616;52.394;9.756;2023-05-15T00:04:13;11.37;;;9.93;;
3207;SDS011;1616;52.394;9.756;2023-05-15T00:06:39;9.93;;;8.90;;
3207;SDS011;1616;52.394;9.756;2023-05-15T00:09:04;10.27;;;9.37;;
3207;SDS011;1616;52.394;9.756;2023-05-15T00:11:30;11.70;;;8.80;;
3207;SDS011;1616;52.394;9.756;2023-05-15T00:13:56;9.00;;;8.10;;
3207;SDS011;1616;52.394;9.756;2023-05-15T00:16:21;10.13;;;9.47;;
3207;SDS011;1616;52.394;9.756;2023-05-15T00:18:47;9.30;;;8.70;;
3207;SDS011;1616;52.394;9.756;2023-05-15T00:21:12;9.70;;;9.00;;
3207;SDS011;1616;52.394;9.756;2023-05-15T00:23:38;9.10;;;8.60;;
3207;SDS011;1616;52.394;9.756;2023-05-15T00:26:03;8.60;;;8.10;;
3207;SDS011;1616;52.394;9.756;2023-05-15T00:28:29;10.57;;;9.73;;
3207;SDS011;1616;52.394;9.756;2023-05-15T00:30:55;10.23;;;9.43;;
3207;SDS011;1616;52.394;9.756;2023-05-15T00:33:20;10.97;;;10.07;;
3207;SDS011;1616;52.394;9.756;2023-05-15T00:35:46;10.30;;;9.60;;
3207;SDS011;1616;52.394;9.756;2023-05-15T00:38:11;10.80;;;9.70;;
3207;SDS011;1616;52.394;9.756;2023-05-15T00:40:37;11.47;;;10.20;;
3207;SDS011;1616;52.394;9.756;2023-05-15T00:43:05;10.43;;;9.33;;
3207;SDS011;1616;52.394;9.756;2023-05-15T00:45:31;12.63;;;11.63;;
3207;SDS011;1616;52.394;9.756;2023-05-15T00:47:58;11.23;;;10.43;;
3207;SDS011;1616;52.394;9.756;2023-05-15T00:50:25;13.27;;;11.80;;
3207;SDS011;1616;52.394;9.756;2023-05-15T00:52:51;12.80;;;11.60;;
3207;SDS011;1616;52.394;9.756;2023-05-15T00:55:17;12.77;;;11.83;;
3207;SDS011;1616;52.394;9.756;2023-05-15T00:57:43;12.00;;;11.10;;
3207;SDS011;1616;52.394;9.756;2023-05-15T01:00:10;13.10;;;10.87;;
3207;SDS011;1616;52.394;9.756;2023-05-15T01:02:36;12.10;;;11.10;;
3207;SDS011;1616;52.394;9.756;2023-05-15T01:05:03;10.87;;;10.20;;
3207;SDS011;1616;52.394;9.756;2023-05-15T01:07:33;13.90;;;12.70;;
3207;SDS011;1616;52.394;9.756;2023-05-15T01:10:07;13.83;;;12.47;;
3207;SDS011;1616;52.394;9.756;2023-05-15T01:12:33;13.40;;;12.23;;
3207;SDS011;1616;52.394;9.756;2023-05-15T01:15:01;11.63;;;10.83;;
3207;SDS011;1616;52.394;9.756;2023-05-15T01:17:26;13.07;;;11.70;;
3207;SDS011;1616;52.394;9.756;2023-05-15T01:19:52;12.20;;;11.20;;
3207;SDS011;1616;52.394;9.756;2023-05-15T01:28:08;15.33;;;13.30;;
3207;SDS011;1616;52.394;9.756;2023-05-15T01:30:37;13.17;;;12.20;;
3207;SDS011;1616;52.394;9.756;2023-05-15T01:35:46;12.43;;;11.33;;
3207;SDS011;1616;52.394;9.756;2023-05-15T01:40:46;11.63;;;10.83;;
3207;SDS011;1616;52.394;9.756;2023-05-15T01:43:14;12.20;;;11.20;;
3207;SDS011;1616;52.394;9.756;2023-05-15T01:45:43;13.17;;;11.87;;
3207;SDS011;1616;52.394;9.756;2023-05-15T01:48:09;12.70;;;11.50;;
3207;SDS011;1616;52.394;9.756;2023-05-15T01:50:37;11.90;;;10.90;;
3207;SDS011;1616;52.394;9.756;2023-05-15T01:53:05;11.43;;;10.60;;
3207;SDS011;1616;52.394;9.756;2023-05-15T01:55:33;12.47;;;11.57;;
3207;SDS011;1616;52.394;9.756;2023-05-15T01:57:59;10.67;;;9.87;;
3207;SDS011;1616;52.394;9.756;2023-05-15T02:00:26;11.77;;;10.67;;
3207;SDS011;1616;52.394;9.756;2023-05-15T02:02:52;10.67;;;9.97;;
3207;SDS011;1616;52.394;9.756;2023-05-15T02:05:18;15.30;;;13.90;;
3207;SDS011;1616;52.394;9.756;2023-05-15T02:07:44;13.30;;;12.10;;
3207;SDS011;1616;52.394;9.756;2023-05-15T02:10:11;11.67;;;10.57;;
3207;SDS011;1616;52.394;9.756;2023-05-15T02:12:38;14.80;;;12.73;;
3207;SDS011;1616;52.394;9.756;2023-05-15T02:15:06;13.77;;;12.67;;
3207;SDS011;1616;52.394;9.756;2023-05-15T02:17:33;12.07;;;11.07;;
3207;SDS011;1616;52.394;9.756;2023-05-15T02:19:59;14.10;;;12.93;;
3207;SDS011;1616;52.394;9.756;2023-05-15T02:22:25;12.83;;;11.67;;
3207;SDS011;1616;52.394;9.756;2023-05-15T02:24:51;14.93;;;10.77;;
3207;SDS011;1616;52.394;9.756;2023-05-15T02:27:25;11.60;;;10.80;;
3207;SDS011;1616;52.394;9.756;2023-05-15T02:35:36;12.30;;;11.50;;
3207;SDS011;1616;52.394;9.756;2023-05-15T02:38:14;14.27;;;13.00;;
3207;SDS011;1616;52.394;9.756;2023-05-15T02:40:43;11.20;;;10.50;;
3207;SDS011;1616;52.394;9.756;2023-05-15T02:43:10;13.77;;;12.87;;
3207;SDS011;1616;52.394;9.756;2023-05-15T02:45:38;12.50;;;11.47;;
3207;SDS011;1616;52.394;9.756;2023-05-15T02:48:05;13.00;;;12.10;;
3207;SDS011;1616;52.394;9.756;2023-05-15T02:50:31;13.07;;;12.07;;
3207;SDS011;1616;52.394;9.756;2023-05-15T02:53:06;11.33;;;10.47;;
3207;SDS011;1616;52.394;9.756;2023-05-15T02:55:33;11.23;;;10.53;;
3207;SDS011;1616;52.394;9.756;2023-05-15T02:58:00;10.10;;;9.40;;
3207;SDS011;1616;52.394;9.756;2023-05-15T03:00:27;10.70;;;10.10;;
3207;SDS011;1616;52.394;9.756;2023-05-15T03:02:53;12.50;;;10.90;;
3207;SDS011;1616;52.394;9.756;2023-05-15T03:05:19;9.77;;;9.23;;
3207;SDS011;1616;52.394;9.756;2023-05-15T03:07:45;10.10;;;9.43;;
3207;SDS011;1616;52.394;9.756;2023-05-15T03:10:10;9.87;;;9.07;;
3207;SDS011;1616;52.394;9.756;2023-05-15T03:12:36;11.47;;;10.63;;
3207;SDS011;1616;52.394;9.756;2023-05-15T03:15:03;12.57;;;11.70;;
3207;SDS011;1616;52.394;9.756;2023-05-15T03:17:30;12.17;;;11.27;;
3207;SDS011;1616;52.394;9.756;2023-05-15T03:19:55;11.67;;;10.73;;
3207;SDS011;1616;52.394;9.756;2023-05-15T03:22:21;12.03;;;11.07;;
3207;SDS011;1616;52.394;9.756;2023-05-15T03:24:47;10.50;;;9.77;;
3207;SDS011;1616;52.394;9.756;2023-05-15T03:27:13;12.13;;;10.87;;
3207;SDS011;1616;52.394;9.756;2023-05-15T03:29:39;11.93;;;11.10;;
3207;SDS011;1616;52.394;9.756;2023-05-15T03:32:06;12.63;;;11.57;;
3207;SDS011;1616;52.394;9.756;2023-05-15T03:34:31;13.07;;;12.07;;
3207;SDS011;1616;52.394;9.756;2023-05-15T03:36:57;13.53;;;12.33;;
3207;SDS011;1616;52.394;9.756;2023-05-15T03:39:22;11.43;;;10.50;;
3207;SDS011;1616;52.394;9.756;2023-05-15T03:41:48;11.50;;;10.80;;
3207;SDS011;1616;52.394;9.756;2023-05-15T03:44:13;12.97;;;11.93;;
3207;SDS011;1616;52.394;9.756;2023-05-15T03:46:39;12.70;;;11.70;;
3207;SDS011;1616;52.394;9.756;2023-05-15T03:49:04;13.10;;;12.10;;
3207;SDS011;1616;52.394;9.756;2023-05-15T03:51:30;14.77;;;13.47;;
3207;SDS011;1616;52.394;9.756;2023-05-15T03:53:56;11.93;;;11.10;;
3207;SDS011;1616;52.394;9.756;2023-05-15T03:56:22;11.17;;;10.17;;
3207;SDS011;1616;52.394;9.756;2023-05-15T03:58:47;11.97;;;10.97;;
3207;SDS011;1616;52.394;9.756;2023-05-15T04:01:13;11.13;;;7.63;;
3207;SDS011;1616;52.394;9.756;2023-05-15T04:03:38;12.10;;;8.63;;
3207;SDS011;1616;52.394;9.756;2023-05-15T04:06:04;7.00;;;6.50;;
3207;SDS011;1616;52.394;9.756;2023-05-15T04:08:30;7.50;;;6.90;;
3207;SDS011;1616;52.394;9.756;2023-05-15T04:10:56;9.20;;;8.60;;
3207;SDS011;1616;52.394;9.756;2023-05-15T04:13:21;8.33;;;7.83;;
3207;SDS011;1616;52.394;9.756;2023-05-15T04:15:47;8.63;;;8.23;;
3207;SDS011;1616;52.394;9.756;2023-05-15T04:18:12;7.70;;;7.30;;
3207;SDS011;1616;52.394;9.756;2023-05-15T04:20:38;9.37;;;8.67;;
3207;SDS011;1616;52.394;9.756;2023-05-15T04:23:04;8.47;;;7.93;;
3207;SDS011;1616;52.394;9.756;2023-05-15T04:25:30;9.27;;;8.20;;
3207;SDS011;1616;52.394;9.756;2023-05-15T04:27:56;10.27;;;7.10;;
3207;SDS011;1616;52.394;9.756;2023-05-15T04:30:22;9.37;;;8.63;;
3207;SDS011;1616;52.394;9.756;2023-05-15T04:32:48;10.23;;;9.60;;
3207;SDS011;1616;52.394;9.756;2023-05-15T04:35:15;9.60;;;8.80;;
3207;SDS011;1616;52.394;9.756;2023-05-15T04:37:42;8.90;;;8.30;;
3207;SDS011;1616;52.394;9.756;2023-05-15T04:40:09;8.60;;;7.93;;
3207;SDS011;1616;52.394;9.756;2023-05-15T04:42:36;9.23;;;7.90;;
3207;SDS011;1616;52.394;9.756;2023-05-15T04:45:02;9.07;;;8.47;;
3207;SDS011;1616;52.394;9.756;2023-05-15T04:47:28;8.23;;;7.57;;
3207;SDS011;1616;52.394;9.756;2023-05-15T04:49:53;10.03;;;8.27;;
3207;SDS011;1616;52.394;9.756;2023-05-15T04:52:19;12.33;;;7.70;;
3207;SDS011;1616;52.394;9.756;2023-05-15T04:54:44;9.67;;;8.70;;
3207;SDS011;1616;52.394;9.756;2023-05-15T04:57:12;8.67;;;8.37;;
3207;SDS011;1616;52.394;9.756;2023-05-15T04:59:38;9.10;;;8.47;;
3207;SDS011;1616;52.394;9.756;2023-05-15T05:02:04;8.50;;;7.77;;
3207;SDS011;1616;52.394;9.756;2023-05-15T05:04:30;11.57;;;10.40;;
3207;SDS011;1616;52.394;9.756;2023-05-15T05:06:56;8.73;;;8.20;;
3207;SDS011;1616;52.394;9.756;2023-05-15T05:09:21;7.97;;;7.37;;
3207;SDS011;1616;52.394;9.756;2023-05-15T05:11:47;9.37;;;8.57;;
3207;SDS011;1616;52.394;9.756;2023-05-15T05:14:13;13.40;;;9.93;;
3207;SDS011;1616;52.394;9.756;2023-05-15T05:16:39;9.20;;;8.80;;
3207;SDS011;1616;52.394;9.756;2023-05-15T05:19:05;8.93;;;7.90;;
3207;SDS011;1616;52.394;9.756;2023-05-15T05:21:31;9.50;;;9.00;;
3207;SDS011;1616;52.394;9.756;2023-05-15T05:23:57;9.80;;;8.90;;
3207;SDS011;1616;52.394;9.756;2023-05-15T05:26:23;9.97;;;9.00;;
3207;SDS011;1616;52.394;9.756;2023-05-15T05:28:50;9.33;;;8.60;;
3207;SDS011;1616;52.394;9.756;2023-05-15T05:31:15;9.47;;;8.77;;
3207;SDS011;1616;52.394;9.756;2023-05-15T05:33:41;8.40;;;8.00;;
3207;SDS011;1616;52.394;9.756;2023-05-15T05:36:07;9.27;;;8.87;;
3207;SDS011;1616;52.394;9.756;2023-05-15T05:38:33;9.30;;;8.30;;
3207;SDS011;1616;52.394;9.756;2023-05-15T05:41:00;9.87;;;9.13;;
3207;SDS011;1616;52.394;9.756;2023-05-15T05:43:26;9.30;;;8.70;;
3207;SDS011;1616;52.394;9.756;2023-05-15T05:45:51;10.90;;;10.17;;
3207;SDS011;1616;52.394;9.756;2023-05-15T05:48:17;9.43;;;8.90;;
3207;SDS011;1616;52.394;9.756;2023-05-15T05:50:43;17.67;;;12.37;;
3207;SDS011;1616;52.394;9.756;2023-05-15T05:53:09;10.57;;;9.43;;
3207;SDS011;1616;52.394;9.756;2023-05-15T05:55:35;11.73;;;8.23;;
3207;SDS011;1616;52.394;9.756;2023-05-15T05:58:00;10.27;;;9.47;;
3207;SDS011;1616;52.394;9.756;2023-05-15T06:00:26;9.10;;;8.40;;
3207;SDS011;1616;52.394;9.756;2023-05-15T06:02:55;10.37;;;9.37;;
3207;SDS011;1616;52.394;9.756;2023-05-15T06:05:22;10.60;;;9.80;;
3207;SDS011;1616;52.394;9.756;2023-05-15T06:07:52;10.17;;;9.30;;
3207;SDS011;1616;52.394;9.756;2023-05-15T06:10:18;9.23;;;8.30;;
3207;SDS011;1616;52.394;9.756;2023-05-15T06:12:44;10.20;;;8.53;;
3207;SDS011;1616;52.394;9.756;2023-05-15T06:15:10;11.77;;;10.47;;
3207;SDS011;1616;52.394;9.756;2023-05-15T06:17:37;9.37;;;8.87;;
3207;SDS011;1616;52.394;9.756;2023-05-15T06:20:03;12.03;;;8.60;;
3207;SDS011;1616;52.394;9.756;2023-05-15T06:22:33;9.83;;;8.57;;
3207;SDS011;1616;52.394;9.756;2023-05-15T06:25:00;9.87;;;9.13;;
3207;SDS011;1616;52.394;9.756;2023-05-15T06:27:27;12.00;;;10.43;;
3207;SDS011;1616;52.394;9.756;2023-05-15T06:29:53;11.90;;;10.90;;
3207;SDS011;1616;52.394;9.756;2023-05-15T06:32:19;10.00;;;9.00;;
3207;SDS011;1616;52.394;9.756;2023-05-15T06:34:45;11.77;;;11.10;;
3207;SDS011;1616;52.394;9.756;2023-05-15T06:37:11;7.93;;;7.63;;
3207;SDS011;1616;52.394;9.756;2023-05-15T06:39:36;8.03;;;7.43;;
3207;SDS011;1616;52.394;9.756;2023-05-15T06:42:02;9.67;;;8.70;;
3207;SDS011;1616;52.394;9.756;2023-05-15T06:44:28;7.53;;;7.23;;
3207;SDS011;1616;52.394;9.756;2023-05-15T06:46:55;9.33;;;8.60;;
3207;SDS011;1616;52.394;9.756;2023-05-15T06:49:21;8.80;;;7.80;;
3207;SDS011;1616;52.394;9.756;2023-05-15T06:51:47;7.77;;;7.40;;
3207;SDS011;1616;52.394;9.756;2023-05-15T06:54:13;7.53;;;6.80;;
3207;SDS011;1616;52.394;9.756;2023-05-15T06:56:39;7.60;;;7.20;;
3207;SDS011;1616;52.394;9.756;2023-05-15T06:59:04;8.30;;;7.23;;
3207;SDS011;1616;52.394;9.756;2023-05-15T07:01:30;10.17;;;7.30;;
3207;SDS011;1616;52.394;9.756;2023-05-15T07:03:56;8.43;;;7.73;;
3207;SDS011;1616;52.394;9.756;2023-05-15T07:06:21;8.10;;;7.30;;
3207;SDS011;1616;52.394;9.756;2023-05-15T07:08:47;8.10;;;7.30;;
3207;SDS011;1616;52.394;9.756;2023-05-15T07:11:13;7.47;;;6.83;;
3207;SDS011;1616;52.394;9.756;2023-05-15T07:13:39;7.43;;;6.87;;
3207;SDS011;1616;52.394;9.756;2023-05-15T07:16:04;7.70;;;7.00;;
3207;SDS011;1616;52.394;9.756;2023-05-15T07:18:30;9.23;;;8.63;;
3207;SDS011;1616;52.394;9.756;2023-05-15T07:20:56;7.80;;;7.20;;
3207;SDS011;1616;52.394;9.756;2023-05-15T07:23:22;8.80;;;7.23;;
3207;SDS011;1616;52.394;9.756;2023-05-15T07:25:47;7.50;;;6.83;;
3207;SDS011;1616;52.394;9.756;2023-05-15T07:28:13;6.67;;;6.27;;
3207;SDS011;1616;52.394;9.756;2023-05-15T07:30:39;6.40;;;5.43;;
3207;SDS011;1616;52.394;9.756;2023-05-15T07:33:05;10.10;;;9.40;;
3207;SDS011;1616;52.394;9.756;2023-05-15T07:35:31;7.67;;;6.90;;
3207;SDS011;1616;52.394;9.756;2023-05-15T07:37:56;10.07;;;9.47;;
3207;SDS011;1616;52.394;9.756;2023-05-15T07:40:22;8.83;;;8.10;;
3207;SDS011;1616;52.394;9.756;2023-05-15T07:42:47;8.73;;;7.83;;
3207;SDS011;1616;52.394;9.756;2023-05-15T07:45:13;16.17;;;9.43;;
3207;SDS011;1616;52.394;9.756;2023-05-15T07:47:43;9.70;;;8.80;;
3207;SDS011;1616;52.394;9.756;2023-05-15T07:50:10;8.80;;;8.30;;
3207;SDS011;1616;52.394;9.756;2023-05-15T07:52:35;7.87;;;7.53;;
3207;SDS011;1616;52.394;9.756;2023-05-15T07:55:01;6.90;;;6.60;;
3207;SDS011;1616;52.394;9.756;2023-05-15T07:57:26;7.67;;;6.87;;
3207;SDS011;1616;52.394;9.756;2023-05-15T07:59:53;8.83;;;8.13;;
3207;SDS011;1616;52.394;9.756;2023-05-15T08:02:18;7.30;;;6.83;;
3207;SDS011;1616;52.394;9.756;2023-05-15T08:04:44;8.60;;;8.10;;
3207;SDS011;1616;52.394;9.756;2023-05-15T08:07:09;10.53;;;9.63;;
3207;SDS011;1616;52.394;9.756;2023-05-15T08:09:35;16.60;;;8.27;;
3207;SDS011;1616;52.394;9.756;2023-05-15T08:12:18;10.20;;;9.40;;
3207;SDS011;1616;52.394;9.756;2023-05-15T08:14:50;8.87;;;8.27;;
3207;SDS011;1616;52.394;9.756;2023-05-15T08:17:17;10.20;;;9.27;;
3207;SDS011;1616;52.394;9.756;2023-05-15T08:19:44;8.33;;;7.63;;
3207;SDS011;1616;52.394;9.756;2023-05-15T08:22:10;7.80;;;7.50;;
3207;SDS011;1616;52.394;9.756;2023-05-15T08:24:36;8.83;;;7.50;;
3207;SDS011;1616;52.394;9.756;2023-05-15T08:27:03;14.53;;;8.43;;
3207;SDS011;1616;52.394;9.756;2023-05-15T08:29:30;7.87;;;7.37;;
3207;SDS011;1616;52.394;9.756;2023-05-15T08:31:56;8.27;;;7.67;;
3207;SDS011;1616;52.394;9.756;2023-05-15T08:34:22;7.50;;;7.00;;
3207;SDS011;1616;52.394;9.756;2023-05-15T08:36:48;7.47;;;6.77;;
3207;SDS011;1616;52.394;9.756;2023-05-15T08:39:13;6.37;;;5.90;;
3207;SDS011;1616;52.394;9.756;2023-05-15T08:44:23;5.63;;;5.23;;
3207;SDS011;1616;52.394;9.756;2023-05-15T08:46:49;10.60;;;5.10;;
3207;SDS011;1616;52.394;9.756;2023-05-15T08:52:05;6.60;;;6.00;;
3207;SDS011;1616;52.394;9.756;2023-05-15T08:54:31;5.23;;;4.77;;
3207;SDS011;1616;52.394;9.756;2023-05-15T08:56:57;4.23;;;4.03;;
3207;SDS011;1616;52.394;9.756;2023-05-15T08:59:25;4.47;;;4.07;;
3207;SDS011;1616;52.394;9.756;2023-05-15T09:01:50;4.37;;;4.03;;
3207;SDS011;1616;52.394;9.756;2023-05-15T09:04:17;4.23;;;3.93;;
3207;SDS011;1616;52.394;9.756;2023-05-15T09:06:43;14.47;;;4.40;;
3207;SDS011;1616;52.394;9.756;2023-05-15T09:09:12;4.53;;;3.90;;
3207;SDS011;1616;52.394;9.756;2023-05-15T09:11:43;3.80;;;3.50;;
3207;SDS011;1616;52.394;9.756;2023-05-15T09:14:11;3.30;;;3.00;;
3207;SDS011;1616;52.394;9.756;2023-05-15T09:16:37;8.43;;;3.00;;
3207;SDS011;1616;52.394;9.756;2023-05-15T09:19:06;3.95;;;3.17;;
3207;SDS011;1616;52.394;9.756;2023-05-15T09:21:33;4.25;;;3.33;;
3207;SDS011;1616;52.394;9.756;2023-05-15T09:27:08;3.65;;;3.35;;
3207;SDS011;1616;52.394;9.756;2023-05-15T09:29:35;2.95;;;2.75;;
3207;SDS011;1616;52.394;9.756;2023-05-15T09:32:06;5.28;;;3.00;;
3207;SDS011;1616;52.394;9.756;2023-05-15T09:34:36;2.58;;;2.30;;
3207;SDS011;1616;52.394;9.756;2023-05-15T09:37:04;2.80;;;2.60;;
3207;SDS011;1616;52.394;9.756;2023-05-15T09:39:31;4.93;;;3.33;;
3207;SDS011;1616;52.394;9.756;2023-05-15T09:42:11;5.63;;;2.90;;
3207;SDS011;1616;52.394;9.756;2023-05-15T09:44:41;2.63;;;2.42;;
3207;SDS011;1616;52.394;9.756;2023-05-15T09:47:08;3.05;;;2.85;;
3207;SDS011;1616;52.394;9.756;2023-05-15T09:49:35;5.53;;;3.15;;
3207;SDS011;1616;52.394;9.756;2023-05-15T09:52:01;10.40;;;3.38;;
3207;SDS011;1616;52.394;9.756;2023-05-15T09:54:27;7.82;;;2.20;;
3207;SDS011;1616;52.394;9.756;2023-05-15T09:56:56;3.30;;;3.10;;
3207;SDS011;1616;52.394;9.756;2023-05-15T09:59:32;6.85;;;2.67;;
3207;SDS011;1616;52.394;9.756;2023-05-15T10:01:58;2.65;;;2.40;;
3207;SDS011;1616;52.394;9.756;2023-05-15T10:04:24;16.00;;;3.33;;
3207;SDS011;1616;52.394;9.756;2023-05-15T10:06:51;4.93;;;2.20;;
3207;SDS011;1616;52.394;9.756;2023-05-15T10:09:17;6.07;;;2.70;;
3207;SDS011;1616;52.394;9.756;2023-05-15T10:11:45;2.83;;;2.58;;
3207;SDS011;1616;52.394;9.756;2023-05-15T10:14:16;2.90;;;2.70;;
3207;SDS011;1616;52.394;9.756;2023-05-15T10:16:44;3.00;;;2.75;;
3207;SDS011;1616;52.394;9.756;2023-05-15T10:19:10;4.18;;;2.75;;
3207;SDS011;1616;52.394;9.756;2023-05-15T10:21:37;5.60;;;2.03;;
3207;SDS011;1616;52.394;9.756;2023-05-15T10:24:05;2.40;;;2.20;;
3207;SDS011;1616;52.394;9.756;2023-05-15T10:29:05;3.58;;;2.38;;
3207;SDS011;1616;52.394;9.756;2023-05-15T10:31:35;2.17;;;1.98;;
3207;SDS011;1616;52.394;9.756;2023-05-15T10:34:01;2.45;;;2.25;;
3207;SDS011;1616;52.394;9.756;2023-05-15T10:36:28;4.13;;;2.08;;
3207;SDS011;1616;52.394;9.756;2023-05-15T10:38:56;12.05;;;2.42;;
3207;SDS011;1616;52.394;9.756;2023-05-15T10:41:24;5.43;;;3.08;;
3207;SDS011;1616;52.394;9.756;2023-05-15T10:43:52;4.07;;;2.47;;
3207;SDS011;1616;52.394;9.756;2023-05-15T10:46:19;3.95;;;2.40;;
3207;SDS011;1616;52.394;9.756;2023-05-15T10:48:45;5.15;;;2.58;;
3207;SDS011;1616;52.394;9.756;2023-05-15T10:51:15;5.45;;;2.10;;
3207;SDS011;1616;52.394;9.756;2023-05-15T10:53:42;28.40;;;2.45;;
3207;SDS011;1616;52.394;9.756;2023-05-15T10:56:12;4.57;;;2.17;;
3207;SDS011;1616;52.394;9.756;2023-05-15T10:58:42;2.92;;;2.30;;
3207;SDS011;1616;52.394;9.756;2023-05-15T11:03:55;4.47;;;2.17;;
3207;SDS011;1616;52.394;9.756;2023-05-15T11:06:32;7.32;;;2.05;;
3207;SDS011;1616;52.394;9.756;2023-05-15T11:11:59;2.25;;;2.00;;
3207;SDS011;1616;52.394;9.756;2023-05-15T11:14:26;2.53;;;2.20;;
3207;SDS011;1616;52.394;9.756;2023-05-15T11:22:03;3.23;;;2.90;;
3207;SDS011;1616;52.394;9.756;2023-05-15T11:24:53;5.10;;;3.50;;
3207;SDS011;1616;52.394;9.756;2023-05-15T11:27:31;9.23;;;3.47;;
3207;SDS011;1616;52.394;9.756;2023-05-15T11:33:10;29.60;;;3.17;;
3207;SDS011;1616;52.394;9.756;2023-05-15T11:35:30;4.20;;;4.00;;
3207;SDS011;1616;52.394;9.756;2023-05-15T11:38:10;3.60;;;3.30;;
3207;SDS011;1616;52.394;9.756;2023-05-15T11:43:36;3.57;;;3.03;;
3207;SDS011;1616;52.394;9.756;2023-05-15T11:48:34;4.57;;;4.17;;
3207;SDS011;1616;52.394;9.756;2023-05-15T11:51:02;4.53;;;4.00;;
3207;SDS011;1616;52.394;9.756;2023-05-15T11:53:29;6.87;;;3.60;;
3207;SDS011;1616;52.394;9.756;2023-05-15T11:55:56;3.10;;;2.90;;
3207;SDS011;1616;52.394;9.756;2023-05-15T11:58:22;3.27;;;2.93;;
3207;SDS011;1616;52.394;9.756;2023-05-15T12:00:49;2.77;;;2.57;;
3207;SDS011;1616;52.394;9.756;2023-05-15T12:05:47;7.93;;;5.20;;
3207;SDS011;1616;52.394;9.756;2023-05-15T12:08:13;3.57;;;3.27;;
3207;SDS011;1616;52.394;9.756;2023-05-15T12:10:42;6.07;;;3.27;;
3207;SDS011;1616;52.394;9.756;2023-05-15T12:13:12;5.27;;;3.00;;
3207;SDS011;1616;52.394;9.756;2023-05-15T12:15:41;4.37;;;3.60;;
3207;SDS011;1616;52.394;9.756;2023-05-15T12:18:08;4.23;;;2.87;;
3207;SDS011;1616;52.394;9.756;2023-05-15T12:20:35;3.40;;;3.20;;
3207;SDS011;1616;52.394;9.756;2023-05-15T12:23:02;4.03;;;3.73;;
3207;SDS011;1616;52.394;9.756;2023-05-15T12:25:29;7.70;;;3.83;;
3207;SDS011;1616;52.394;9.756;2023-05-15T12:27:57;3.90;;;3.60;;
3207;SDS011;1616;52.394;9.756;2023-05-15T12:30:24;11.37;;;3.03;;
3207;SDS011;1616;52.394;9.756;2023-05-15T12:32:50;6.83;;;3.57;;
3207;SDS011;1616;52.394;9.756;2023-05-15T12:35:16;4.53;;;3.57;;
3207;SDS011;1616;52.394;9.756;2023-05-15T12:37:41;5.80;;;4.40;;
3207;SDS011;1616;52.394;9.756;2023-05-15T12:40:07;5.77;;;5.00;;
3207;SDS011;1616;52.394;9.756;2023-05-15T12:42:42;8.87;;;3.80;;
3207;SDS011;1616;52.394;9.756;2023-05-15T12:45:12;6.10;;;5.30;;
3207;SDS011;1616;52.394;9.756;2023-05-15T12:47:39;6.57;;;4.67;;
3207;SDS011;1616;52.394;9.756;2023-05-15T12:50:16;11.40;;;5.80;;
3207;SDS011;1616;52.394;9.756;2023-05-15T12:52:46;4.60;;;4.20;;
3207;SDS011;1616;52.394;9.756;2023-05-15T12:55:22;8.80;;;5.73;;
3207;SDS011;1616;52.394;9.756;2023-05-15T12:57:51;6.90;;;4.60;;
3207;SDS011;1616;52.394;9.756;2023-05-15T13:00:18;6.23;;;4.53;;
3207;SDS011;1616;52.394;9.756;2023-05-15T13:02:56;7.63;;;5.17;;
3207;SDS011;1616;52.394;9.756;2023-05-15T13:05:23;5.93;;;5.00;;
3207;SDS011;1616;52.394;9.756;2023-05-15T13:07:49;7.90;;;3.90;;
3207;SDS011;1616;52.394;9.756;2023-05-15T13:10:21;4.90;;;3.53;;
3207;SDS011;1616;52.394;9.756;2023-05-15T13:12:49;5.00;;;4.53;;
3207;SDS011;1616;52.394;9.756;2023-05-15T13:18:15;10.80;;;6.10;;
3207;SDS011;1616;52.394;9.756;2023-05-15T13:20:44;5.10;;;4.50;;
3207;SDS011;1616;52.394;9.756;2023-05-15T13:23:12;5.87;;;3.83;;
3207;SDS011;1616;52.394;9.756;2023-05-15T13:25:41;5.07;;;3.87;;
3207;SDS011;1616;52.394;9.756;2023-05-15T13:28:07;4.93;;;3.80;;
3207;SDS011;1616;52.394;9.756;2023-05-15T13:30:34;6.00;;;3.90;;
3207;SDS011;1616;52.394;9.756;2023-05-15T13:33:03;4.20;;;3.97;;
3207;SDS011;1616;52.394;9.756;2023-05-15T13:35:29;4.10;;;3.70;;
3207;SDS011;1616;52.394;9.756;2023-05-15T13:37:55;4.13;;;3.93;;
3207;SDS011;1616;52.394;9.756;2023-05-15T13:40:21;4.53;;;3.70;;
3207;SDS011;1616;52.394;9.756;2023-05-15T13:42:47;4.10;;;3.90;;
3207;SDS011;1616;52.394;9.756;2023-05-15T13:45:13;4.80;;;4.40;;
3207;SDS011;1616;52.394;9.756;2023-05-15T13:47:40;9.63;;;5.70;;
3207;SDS011;1616;52.394;9.756;2023-05-15T13:50:07;6.87;;;5.23;;
3207;SDS011;1616;52.394;9.756;2023-05-15T13:52:35;9.20;;;5.90;;
3207;SDS011;1616;52.394;9.756;2023-05-15T13:55:01;6.40;;;6.00;;
3207;SDS011;1616;52.394;9.756;2023-05-15T13:57:28;7.93;;;6.13;;
3207;SDS011;1616;52.394;9.756;2023-05-15T13:59:54;5.77;;;5.47;;
3207;SDS011;1616;52.394;9.756;2023-05-15T14:02:20;14.13;;;5.30;;
3207;SDS011;1616;52.394;9.756;2023-05-15T14:04:47;5.90;;;5.53;;
3207;SDS011;1616;52.394;9.756;2023-05-15T14:07:13;20.87;;;6.17;;
3207;SDS011;1616;52.394;9.756;2023-05-15T14:09:38;5.43;;;5.13;;
3207;SDS011;1616;52.394;9.756;2023-05-15T14:12:04;5.40;;;4.77;;
3207;SDS011;1616;52.394;9.756;2023-05-15T14:14:29;4.63;;;4.33;;
3207;SDS011;1616;52.394;9.756;2023-05-15T14:16:55;9.97;;;4.60;;
3207;SDS011;1616;52.394;9.756;2023-05-15T14:19:21;9.20;;;5.10;;
3207;SDS011;1616;52.394;9.756;2023-05-15T14:21:46;9.83;;;4.40;;
3207;SDS011;1616;52.394;9.756;2023-05-15T14:24:12;7.20;;;3.20;;
3207;SDS011;1616;52.394;9.756;2023-05-15T14:26:38;5.37;;;3.47;;
3207;SDS011;1616;52.394;9.756;2023-05-15T14:29:03;5.20;;;4.40;;
3207;SDS011;1616;52.394;9.756;2023-05-15T14:31:29;12.23;;;4.30;;
3207;SDS011;1616;52.394;9.756;2023-05-15T14:33:55;3.93;;;3.50;;
3207;SDS011;1616;52.394;9.756;2023-05-15T14:36:20;6.87;;;4.27;;
3207;SDS011;1616;52.394;9.756;2023-05-15T14:38:46;14.57;;;7.50;;
3207;SDS011;1616;52.394;9.756;2023-05-15T14:41:13;6.07;;;5.53;;
3207;SDS011;1616;52.394;9.756;2023-05-15T14:43:39;6.70;;;5.43;;
3207;SDS011;1616;52.394;9.756;2023-05-15T14:46:04;8.57;;;5.33;;
3207;SDS011;1616;52.394;9.756;2023-05-15T14:48:30;8.63;;;5.37;;
3207;SDS011;1616;52.394;9.756;2023-05-15T14:50:58;8.87;;;5.40;;
3207;SDS011;1616;52.394;9.756;2023-05-15T14:53:25;14.47;;;4.60;;
3207;SDS011;1616;52.394;9.756;2023-05-15T14:55:51;9.40;;;4.43;;
3207;SDS011;1616;52.394;9.756;2023-05-15T14:58:18;6.67;;;3.87;;
3207;SDS011;1616;52.394;9.756;2023-05-15T15:00:43;3.50;;;3.30;;
3207;SDS011;1616;52.394;9.756;2023-05-15T15:03:09;11.33;;;5.03;;
3207;SDS011;1616;52.394;9.756;2023-05-15T15:05:34;9.80;;;3.57;;
3207;SDS011;1616;52.394;9.756;2023-05-15T15:08:04;2.47;;;2.37;;
3207;SDS011;1616;52.394;9.756;2023-05-15T15:10:30;5.10;;;3.30;;
3207;SDS011;1616;52.394;9.756;2023-05-15T15:12:57;5.10;;;2.83;;
3207;SDS011;1616;52.394;9.756;2023-05-15T15:15:24;4.60;;;2.40;;
3207;SDS011;1616;52.394;9.756;2023-05-15T15:17:49;7.93;;;2.33;;
3207;SDS011;1616;52.394;9.756;2023-05-15T15:20:16;3.40;;;2.50;;
3207;SDS011;1616;52.394;9.756;2023-05-15T15:22:44;4.47;;;2.80;;
3207;SDS011;1616;52.394;9.756;2023-05-15T15:25:10;5.10;;;2.90;;
3207;SDS011;1616;52.394;9.756;2023-05-15T15:27:36;5.03;;;1.70;;
3207;SDS011;1616;52.394;9.756;2023-05-15T15:30:03;9.60;;;2.43;;
3207;SDS011;1616;52.394;9.756;2023-05-15T15:32:29;3.20;;;2.20;;
3207;SDS011;1616;52.394;9.756;2023-05-15T15:34:56;2.47;;;2.20;;
3207;SDS011;1616;52.394;9.756;2023-05-15T15:37:22;1.80;;;1.70;;
3207;SDS011;1616;52.394;9.756;2023-05-15T15:39:48;2.40;;;2.20;;
3207;SDS011;1616;52.394;9.756;2023-05-15T15:42:13;8.90;;;3.40;;
3207;SDS011;1616;52.394;9.756;2023-05-15T15:44:39;7.57;;;2.73;;
3207;SDS011;1616;52.394;9.756;2023-05-15T15:47:05;6.80;;;3.70;;
3207;SDS011;1616;52.394;9.756;2023-05-15T15:49:31;3.07;;;2.73;;
3207;SDS011;1616;52.394;9.756;2023-05-15T15:51:56;4.10;;;3.40;;
3207;SDS011;1616;52.394;9.756;2023-05-15T15:54:22;3.40;;;2.80;;
3207;SDS011;1616;52.394;9.756;2023-05-15T15:56:47;3.43;;;3.13;;
3207;SDS011;1616;52.394;9.756;2023-05-15T15:59:13;5.47;;;3.63;;